createdAt,value
2023-06-11T00:01:44.450Z,27.00
2023-06-11T00:04:26.392Z,26.90
2023-06-11T00:07:01.126Z,26.90
2023-06-11T00:09:32.185Z,26.80
2023-06-11T00:12:02.767Z,26.80
2023-06-11T00:14:33.168Z,26.80
2023-06-11T00:17:03.709Z,26.70
2023-06-11T00:19:34.117Z,26.70
2023-06-11T00:22:08.263Z,26.70
2023-06-11T00:24:39.005Z,26.70
2023-06-11T00:27:10.044Z,26.60
2023-06-11T00:29:40.569Z,26.60
2023-06-11T00:32:12.217Z,26.50
2023-06-11T00:34:42.757Z,26.50
2023-06-11T00:37:16.080Z,26.50
2023-06-11T00:39:46.529Z,26.50
2023-06-11T00:42:17.010Z,26.50
2023-06-11T00:44:48.400Z,26.40
2023-06-11T00:47:19.985Z,26.40
2023-06-11T00:49:50.880Z,26.40
2023-06-11T00:52:27.125Z,26.40
2023-06-11T00:55:13.637Z,26.40
2023-06-11T00:57:47.620Z,26.40
2023-06-11T01:00:19.139Z,26.30
2023-06-11T01:02:58.969Z,26.20
2023-06-11T01:05:33.332Z,26.30
2023-06-11T01:08:08.998Z,26.20
2023-06-11T01:10:39.766Z,26.20
2023-06-11T01:13:10.330Z,26.20
2023-06-11T01:15:40.919Z,26.10
2023-06-11T01:18:20.862Z,26.10
2023-06-11T01:21:06.341Z,26.10
2023-06-11T01:23:45.225Z,26.00
2023-06-11T01:26:36.438Z,25.90
2023-06-11T01:29:13.225Z,25.90
2023-06-11T01:31:45.445Z,25.90
2023-06-11T01:34:17.891Z,25.80
2023-06-11T01:36:48.586Z,25.80
2023-06-11T01:39:19.055Z,25.90
2023-06-11T01:42:01.500Z,25.80
2023-06-11T01:44:35.581Z,25.70
2023-06-11T01:47:06.397Z,25.70
2023-06-11T01:49:37.090Z,25.60
2023-06-11T01:52:08.458Z,25.60
2023-06-11T01:54:38.966Z,25.50
2023-06-11T01:57:09.795Z,25.50
2023-06-11T01:59:43.028Z,25.50
2023-06-11T02:02:13.977Z,25.40
2023-06-11T02:04:45.657Z,25.30
2023-06-11T02:07:16.310Z,25.30
2023-06-11T02:09:46.965Z,25.30
2023-06-11T02:12:17.473Z,25.30
2023-06-11T02:14:50.587Z,25.30
2023-06-11T02:17:21.385Z,25.30
2023-06-11T02:19:53.403Z,25.30
2023-06-11T02:22:23.921Z,25.30
2023-06-11T02:24:54.394Z,25.20
2023-06-11T02:27:25.035Z,25.20
2023-06-11T02:29:58.728Z,25.20
2023-06-11T02:32:29.264Z,25.10
2023-06-11T02:35:00.263Z,25.00
2023-06-11T02:37:31.097Z,25.00
2023-06-11T02:40:01.651Z,24.90
2023-06-11T02:42:32.088Z,24.90
2023-06-11T02:45:05.409Z,24.80
2023-06-11T02:47:35.876Z,24.70
2023-06-11T02:50:06.501Z,24.70
2023-06-11T02:52:36.977Z,24.60
2023-06-11T02:55:08.562Z,24.60
2023-06-11T02:57:39.388Z,24.60
2023-06-11T03:00:14.285Z,24.60
2023-06-11T03:02:44.996Z,24.50
2023-06-11T03:05:18.242Z,24.50
2023-06-11T03:07:48.837Z,24.40
2023-06-11T03:10:19.609Z,24.30
2023-06-11T03:12:50.099Z,24.30
2023-06-11T03:15:23.385Z,24.30
2023-06-11T03:17:53.914Z,24.20
2023-06-11T03:20:25.510Z,24.20
2023-06-11T03:22:56.685Z,24.10
2023-06-11T03:25:27.363Z,24.10
2023-06-11T03:27:57.856Z,24.00
2023-06-11T03:30:31.360Z,24.00
2023-06-11T03:33:03.061Z,24.00
2023-06-11T03:35:34.425Z,23.90
2023-06-11T03:38:13.602Z,23.90
2023-06-11T03:40:46.838Z,23.80
2023-06-11T03:43:17.424Z,23.80
2023-06-11T03:45:52.307Z,23.80
2023-06-11T03:48:22.822Z,23.70
2023-06-11T03:50:53.626Z,23.70
2023-06-11T03:53:24.297Z,23.70
2023-06-11T03:55:55.253Z,23.70
2023-06-11T03:58:25.891Z,23.60
2023-06-11T04:00:59.289Z,23.60
2023-06-11T04:03:30.917Z,23.60
2023-06-11T04:06:01.565Z,23.60
2023-06-11T04:08:32.774Z,23.50
2023-06-11T04:11:03.488Z,23.50
2023-06-11T04:13:34.079Z,23.50
2023-06-11T04:16:07.630Z,23.50
2023-06-11T04:18:38.630Z,23.40
2023-06-11T04:21:09.146Z,23.40
2023-06-11T04:23:40.433Z,23.40
2023-06-11T04:26:12.083Z,23.40
2023-06-11T04:28:49.976Z,23.40
2023-06-11T04:31:28.120Z,23.40
2023-06-11T04:34:04.306Z,23.40
2023-06-11T04:36:39.743Z,23.40
2023-06-11T04:39:11.725Z,23.40
2023-06-11T04:41:45.801Z,23.40
2023-06-11T04:44:17.782Z,23.40
2023-06-11T04:46:59.025Z,23.30
2023-06-11T04:49:33.853Z,23.30
2023-06-11T04:52:04.477Z,23.30
2023-06-11T04:54:35.286Z,23.30
2023-06-11T04:57:08.700Z,23.30
2023-06-11T04:59:39.225Z,23.30
2023-06-11T05:02:12.438Z,23.40
2023-06-11T05:04:43.200Z,23.30
2023-06-11T05:07:14.401Z,23.30
2023-06-11T05:09:46.313Z,23.40
2023-06-11T05:12:17.536Z,23.40
2023-06-11T05:14:51.263Z,23.40
2023-06-11T05:17:24.589Z,23.40
2023-06-11T05:19:55.418Z,23.40
2023-06-11T05:22:26.410Z,23.40
2023-06-11T05:24:57.716Z,23.40
2023-06-11T05:27:30.858Z,23.50
2023-06-11T05:30:05.307Z,23.50
2023-06-11T05:32:39.084Z,23.50
2023-06-11T05:35:10.768Z,23.60
2023-06-11T05:37:42.241Z,23.60
2023-06-11T05:40:14.509Z,23.60
2023-06-11T05:42:45.266Z,23.60
2023-06-11T05:45:16.487Z,23.60
2023-06-11T05:47:49.864Z,23.70
2023-06-11T05:50:21.119Z,23.70
2023-06-11T05:52:52.942Z,23.80
2023-06-11T05:55:23.601Z,23.80
2023-06-11T05:57:54.183Z,23.80
2023-06-11T06:00:25.419Z,23.90
2023-06-11T06:03:02.541Z,23.90
2023-06-11T06:05:35.360Z,23.90
2023-06-11T06:08:06.019Z,24.00
2023-06-11T06:10:37.208Z,24.10
2023-06-11T06:13:08.184Z,24.10
2023-06-11T06:15:39.573Z,24.10
2023-06-11T06:18:12.918Z,24.20
2023-06-11T06:20:47.766Z,24.20
2023-06-11T06:23:18.679Z,24.20
2023-06-11T06:25:57.562Z,24.20
2023-06-11T06:28:31.953Z,24.20
2023-06-11T06:31:04.022Z,24.30
2023-06-11T06:33:39.327Z,24.30
2023-06-11T06:36:12.435Z,24.30
2023-06-11T06:38:46.168Z,24.40
2023-06-11T06:41:17.206Z,24.50
2023-06-11T06:43:47.778Z,24.50
2023-06-11T06:46:21.845Z,24.60
2023-06-11T06:48:55.351Z,24.60
2023-06-11T06:51:26.038Z,24.60
2023-06-11T06:53:57.175Z,24.60
2023-06-11T06:56:28.961Z,24.70
2023-06-11T06:59:00.134Z,24.70
2023-06-11T07:01:31.397Z,24.80
2023-06-11T07:04:05.575Z,24.80
2023-06-11T07:06:37.900Z,24.90
2023-06-11T07:09:10.001Z,24.90
2023-06-11T07:11:40.940Z,24.90
2023-06-11T07:14:12.722Z,25.00
2023-06-11T07:16:43.253Z,25.00
2023-06-11T07:19:16.531Z,25.00
2023-06-11T07:21:47.011Z,25.10
2023-06-11T07:24:18.081Z,25.10
2023-06-11T07:26:48.604Z,25.10
2023-06-11T07:29:19.866Z,25.20
2023-06-11T07:31:50.576Z,25.20
2023-06-11T07:34:23.808Z,25.30
2023-06-11T07:36:55.092Z,25.30
2023-06-11T07:39:25.818Z,25.30
2023-06-11T07:41:56.483Z,25.40
2023-06-11T07:44:27.224Z,25.40
2023-06-11T07:46:57.852Z,25.40
2023-06-11T07:49:31.190Z,25.50
2023-06-11T07:52:01.884Z,25.50
2023-06-11T07:54:33.190Z,25.60
2023-06-11T07:57:03.696Z,25.50
2023-06-11T07:59:38.396Z,25.60
2023-06-11T08:02:09.972Z,25.70
2023-06-11T08:04:43.296Z,25.70
2023-06-11T08:07:14.269Z,25.80
2023-06-11T08:09:44.861Z,25.80
2023-06-11T08:12:16.272Z,25.80
2023-06-11T08:14:46.838Z,25.90
2023-06-11T08:17:17.911Z,25.90
2023-06-11T08:19:51.463Z,26.00
2023-06-11T08:22:21.988Z,26.00
2023-06-11T08:24:52.518Z,26.10
2023-06-11T08:27:22.897Z,26.10
2023-06-11T08:29:53.470Z,26.20
2023-06-11T08:32:24.047Z,26.30
2023-06-11T08:34:57.467Z,26.30
2023-06-11T08:37:27.995Z,26.40
2023-06-11T08:39:58.509Z,26.30
2023-06-11T08:42:29.082Z,26.40
2023-06-11T08:45:00.040Z,26.50
2023-06-11T08:47:32.342Z,26.60
2023-06-11T08:50:07.491Z,26.60
2023-06-11T08:52:39.124Z,26.60
2023-06-11T08:55:10.972Z,26.70
2023-06-11T08:57:42.088Z,26.70
2023-06-11T09:00:14.291Z,26.80
2023-06-11T09:02:44.972Z,26.80
2023-06-11T09:05:18.268Z,26.90
2023-06-11T09:07:52.858Z,26.90
2023-06-11T09:10:24.590Z,27.00
2023-06-11T09:12:57.727Z,27.00
2023-06-11T09:15:29.336Z,27.10
2023-06-11T09:17:59.871Z,27.30
2023-06-11T09:20:35.883Z,27.30
2023-06-11T09:23:06.450Z,27.40
2023-06-11T09:25:37.022Z,27.40
2023-06-11T09:28:11.410Z,27.40
2023-06-11T09:30:41.967Z,27.50
2023-06-11T09:33:19.320Z,27.60
2023-06-11T09:35:52.815Z,27.70
2023-06-11T09:38:25.252Z,27.80
2023-06-11T09:40:57.999Z,27.80
2023-06-11T09:43:29.310Z,27.90
2023-06-11T09:45:59.947Z,28.00
2023-06-11T09:48:30.488Z,28.00
2023-06-11T09:51:04.923Z,28.10
2023-06-11T09:53:36.396Z,28.20
2023-06-11T09:56:11.448Z,28.30
2023-06-11T09:58:43.661Z,28.40
2023-06-11T10:01:16.686Z,28.40
2023-06-11T10:03:47.394Z,28.50
2023-06-11T10:06:24.219Z,28.60
2023-06-11T10:08:59.780Z,28.70
2023-06-11T10:11:40.065Z,28.80
2023-06-11T10:14:17.305Z,28.80
2023-06-11T10:16:53.084Z,28.90
2023-06-11T10:19:27.480Z,29.00
2023-06-11T10:22:05.427Z,29.10
2023-06-11T10:24:35.979Z,29.10
2023-06-11T10:27:12.186Z,29.20
2023-06-11T10:29:43.855Z,29.30
2023-06-11T10:32:23.789Z,29.40
2023-06-11T10:34:59.127Z,29.40
2023-06-11T10:37:38.263Z,29.60
2023-06-11T10:40:10.938Z,29.50
2023-06-11T10:42:43.266Z,29.60
2023-06-11T10:45:15.789Z,29.60
2023-06-11T10:47:48.310Z,29.80
2023-06-11T10:50:19.846Z,29.80
2023-06-11T10:52:54.246Z,29.90
2023-06-11T10:55:27.585Z,30.00
2023-06-11T10:57:58.440Z,30.00
2023-06-11T11:00:34.248Z,30.10
2023-06-11T11:03:07.262Z,30.10
2023-06-11T11:05:37.786Z,30.10
2023-06-11T11:08:11.106Z,30.20
2023-06-11T11:10:41.569Z,30.30
2023-06-11T11:13:12.106Z,30.40
2023-06-11T11:15:45.670Z,30.20
2023-06-11T11:18:16.280Z,30.30
2023-06-11T11:20:48.624Z,30.40
2023-06-11T11:23:26.124Z,30.60
2023-06-11T11:25:57.156Z,30.70
2023-06-11T11:28:27.934Z,30.70
2023-06-11T11:30:58.996Z,30.80
2023-06-11T11:33:29.742Z,30.90
2023-06-11T11:36:02.941Z,31.00
2023-06-11T11:38:38.548Z,31.10
2023-06-11T11:41:12.035Z,31.20
2023-06-11T11:43:44.421Z,31.20
2023-06-11T11:46:19.773Z,31.30
2023-06-11T11:48:50.753Z,31.40
2023-06-11T11:51:21.790Z,31.60
2023-06-11T11:53:56.392Z,31.60
2023-06-11T11:56:28.432Z,31.80
2023-06-11T11:58:58.985Z,32.00
2023-06-11T12:01:38.148Z,31.90
2023-06-11T12:04:12.358Z,32.00
2023-06-11T12:06:43.031Z,32.10
2023-06-11T12:09:17.031Z,32.10
2023-06-11T12:12:04.028Z,31.90
2023-06-11T12:14:35.771Z,31.90
2023-06-11T12:17:09.142Z,32.10
2023-06-11T12:19:39.864Z,32.20
2023-06-11T12:22:12.668Z,32.10
2023-06-11T12:24:45.793Z,32.10
2023-06-11T12:27:16.319Z,32.30
2023-06-11T12:29:52.276Z,32.40
2023-06-11T12:32:24.516Z,32.60
2023-06-11T12:34:55.506Z,32.60
2023-06-11T12:37:26.476Z,32.70
2023-06-11T12:39:59.606Z,32.80
2023-06-11T12:42:31.267Z,32.90
2023-06-11T12:45:01.833Z,32.90
2023-06-11T12:47:32.361Z,32.90
2023-06-11T12:50:03.025Z,32.90
2023-06-11T12:52:33.502Z,32.90
2023-06-11T12:55:06.889Z,32.80
2023-06-11T12:57:37.598Z,32.50
2023-06-11T13:00:10.544Z,32.70
2023-06-11T13:02:42.782Z,33.00
2023-06-11T13:05:13.757Z,33.20
2023-06-11T13:07:46.070Z,32.80
2023-06-11T13:10:20.002Z,32.40
2023-06-11T13:12:50.588Z,32.20
2023-06-11T13:15:21.246Z,32.10
2023-06-11T13:17:51.744Z,32.10
2023-06-11T13:20:23.405Z,32.00
2023-06-11T13:22:57.192Z,31.80
2023-06-11T13:25:30.367Z,31.80
2023-06-11T13:28:00.911Z,31.80
2023-06-11T13:30:31.552Z,31.90
2023-06-11T13:33:02.126Z,31.80
2023-06-11T13:35:32.708Z,31.90
2023-06-11T13:38:03.111Z,31.80
2023-06-11T13:40:36.240Z,31.70
2023-06-11T13:43:06.702Z,31.90
2023-06-11T13:45:37.182Z,32.20
2023-06-11T13:48:15.438Z,32.60
2023-06-11T13:50:48.531Z,32.80
2023-06-11T13:53:19.995Z,32.80
2023-06-11T13:55:53.888Z,32.70
2023-06-11T13:58:24.504Z,32.70
2023-06-11T14:00:55.446Z,32.40
2023-06-11T14:03:26.213Z,32.20
2023-06-11T14:05:56.877Z,32.10
2023-06-11T14:08:27.350Z,32.00
2023-06-11T14:11:00.521Z,32.00
2023-06-11T14:13:30.942Z,32.00
2023-06-11T14:16:01.567Z,32.40
2023-06-11T14:18:32.099Z,32.80
2023-06-11T14:21:02.620Z,33.00
2023-06-11T14:23:33.052Z,33.20
2023-06-11T14:26:06.279Z,33.20
2023-06-11T14:28:36.799Z,33.30
2023-06-11T14:31:08.192Z,33.40
2023-06-11T14:33:38.866Z,33.50
2023-06-11T14:36:09.979Z,33.60
2023-06-11T14:38:40.443Z,33.80
2023-06-11T14:41:15.643Z,33.80
2023-06-11T14:43:46.932Z,33.90
2023-06-11T14:46:17.462Z,33.80
2023-06-11T14:48:47.926Z,34.00
2023-06-11T14:51:18.501Z,34.10
2023-06-11T14:53:48.982Z,34.00
2023-06-11T14:56:22.424Z,34.10
2023-06-11T14:58:53.057Z,34.10
2023-06-11T15:01:23.624Z,34.20
2023-06-11T15:03:54.167Z,34.40
2023-06-11T15:06:24.714Z,34.20
2023-06-11T15:08:55.197Z,34.30
2023-06-11T15:11:29.391Z,34.10
2023-06-11T15:13:59.975Z,34.30
2023-06-11T15:16:30.681Z,34.30
2023-06-11T15:19:01.181Z,34.40
2023-06-11T15:21:31.793Z,34.60
2023-06-11T15:24:02.238Z,34.60
2023-06-11T15:26:35.436Z,34.70
2023-06-11T15:29:05.994Z,34.80
2023-06-11T15:31:36.589Z,34.90
2023-06-11T15:34:07.142Z,35.00
2023-06-11T15:36:37.629Z,35.00
2023-06-11T15:39:08.081Z,35.00
2023-06-11T15:41:41.275Z,35.00
2023-06-11T15:44:11.712Z,34.90
2023-06-11T15:46:42.239Z,35.20
2023-06-11T15:49:12.799Z,35.00
2023-06-11T15:51:43.326Z,35.10
2023-06-11T15:54:14.281Z,35.20
2023-06-11T15:56:48.110Z,35.00
2023-06-11T15:59:18.742Z,34.60
2023-06-11T16:01:49.300Z,34.30
2023-06-11T16:04:24.403Z,34.10
2023-06-11T16:06:55.064Z,34.00
2023-06-11T16:09:26.019Z,34.00
2023-06-11T16:11:59.406Z,33.80
2023-06-11T16:14:29.891Z,34.00
2023-06-11T16:17:01.600Z,34.20
2023-06-11T16:19:32.100Z,34.40
2023-06-11T16:22:02.739Z,34.70
2023-06-11T16:24:33.174Z,34.80
2023-06-11T16:27:06.856Z,35.00
2023-06-11T16:29:37.445Z,35.10
2023-06-11T16:32:11.298Z,35.30
2023-06-11T16:34:41.860Z,35.40
2023-06-11T16:37:12.372Z,35.40
2023-06-11T16:39:42.877Z,35.30
2023-06-11T16:42:16.094Z,35.30
2023-06-11T16:44:46.972Z,35.40
2023-06-11T16:47:17.996Z,35.50
2023-06-11T16:49:48.565Z,35.60
2023-06-11T16:52:19.599Z,35.30
2023-06-11T16:54:50.376Z,34.90
2023-06-11T16:57:23.556Z,34.70
2023-06-11T16:59:54.086Z,34.50
2023-06-11T17:02:24.676Z,34.40
2023-06-11T17:04:55.122Z,34.20
2023-06-11T17:07:25.714Z,34.10
2023-06-11T17:09:56.307Z,34.10
2023-06-11T17:12:29.605Z,34.00
2023-06-11T17:15:00.062Z,34.30
2023-06-11T17:17:30.700Z,34.60
2023-06-11T17:20:01.100Z,34.50
2023-06-11T17:22:31.862Z,34.60
2023-06-11T17:25:02.278Z,34.80
2023-06-11T17:27:35.628Z,34.80
2023-06-11T17:30:06.296Z,35.00
2023-06-11T17:32:37.161Z,35.10
2023-06-11T17:35:08.565Z,35.10
2023-06-11T17:37:39.179Z,34.90
2023-06-11T17:40:14.597Z,35.00
2023-06-11T17:42:52.114Z,35.10
2023-06-11T17:45:22.610Z,35.40
2023-06-11T17:47:53.255Z,35.50
2023-06-11T17:50:24.040Z,35.60
2023-06-11T17:52:54.898Z,35.60
2023-06-11T17:55:27.356Z,35.60
2023-06-11T17:58:00.465Z,35.40
2023-06-11T18:00:31.127Z,35.40
2023-06-11T18:03:02.740Z,35.30
2023-06-11T18:05:34.427Z,35.50
2023-06-11T18:08:05.018Z,35.30
2023-06-11T18:10:35.561Z,35.30
2023-06-11T18:13:08.704Z,35.30
2023-06-11T18:15:41.884Z,35.20
2023-06-11T18:18:13.019Z,35.00
2023-06-11T18:20:43.540Z,34.90
2023-06-11T18:23:14.045Z,34.90
2023-06-11T18:25:44.617Z,34.70
2023-06-11T18:28:18.602Z,34.80
2023-06-11T18:30:49.904Z,35.00
2023-06-11T18:33:20.567Z,34.80
2023-06-11T18:35:51.104Z,34.80
2023-06-11T18:38:21.645Z,34.80
2023-06-11T18:40:52.082Z,34.80
2023-06-11T18:43:25.289Z,34.90
2023-06-11T18:45:56.162Z,35.10
2023-06-11T18:48:27.018Z,34.90
2023-06-11T18:50:57.429Z,34.70
2023-06-11T18:53:28.001Z,34.80
2023-06-11T18:55:58.422Z,34.80
2023-06-11T18:58:32.369Z,34.70
2023-06-11T19:01:02.972Z,34.50
2023-06-11T19:03:36.220Z,34.40
2023-06-11T19:06:09.392Z,34.20
2023-06-11T19:08:42.856Z,34.00
2023-06-11T19:11:13.503Z,33.80
2023-06-11T19:13:48.864Z,33.80
2023-06-11T19:16:19.431Z,33.70
2023-06-11T19:18:50.010Z,33.60
2023-06-11T19:21:24.330Z,33.50
2023-06-11T19:23:55.004Z,33.50
2023-06-11T19:26:25.546Z,33.40
2023-06-11T19:28:58.634Z,33.20
2023-06-11T19:31:29.849Z,33.20
2023-06-11T19:34:01.107Z,33.10
2023-06-11T19:36:31.625Z,33.10
2023-06-11T19:39:02.071Z,33.10
2023-06-11T19:41:32.505Z,32.90
2023-06-11T19:44:05.609Z,32.80
2023-06-11T19:46:36.876Z,32.80
2023-06-11T19:49:08.225Z,32.60
2023-06-11T19:51:40.058Z,32.70
2023-06-11T19:54:11.646Z,32.50
2023-06-11T19:56:42.226Z,32.40
2023-06-11T19:59:20.396Z,32.40
2023-06-11T20:01:51.109Z,32.30
2023-06-11T20:04:23.266Z,32.20
2023-06-11T20:06:53.877Z,32.10
2023-06-11T20:09:24.733Z,32.00
2023-06-11T20:12:04.323Z,31.90
2023-06-11T20:14:37.950Z,31.70
2023-06-11T20:17:08.708Z,31.70
2023-06-11T20:19:39.772Z,31.60
2023-06-11T20:22:10.593Z,31.60
2023-06-11T20:24:41.329Z,31.50
2023-06-11T20:27:12.110Z,31.40
2023-06-11T20:29:45.369Z,31.30
2023-06-11T20:32:18.465Z,31.20
2023-06-11T20:34:49.019Z,31.20
2023-06-11T20:37:19.583Z,31.10
2023-06-11T20:39:50.221Z,31.00
2023-06-11T20:42:21.586Z,31.00
2023-06-11T20:44:54.727Z,30.90
2023-06-11T20:47:26.077Z,30.80
2023-06-11T20:49:56.824Z,30.80
2023-06-11T20:52:28.066Z,30.60
2023-06-11T20:54:58.770Z,30.60
2023-06-11T20:57:33.161Z,30.60
2023-06-11T21:00:06.592Z,30.50
2023-06-11T21:02:37.090Z,30.40
2023-06-11T21:05:08.133Z,30.40
2023-06-11T21:07:39.112Z,30.40
2023-06-11T21:10:11.543Z,30.40
2023-06-11T21:12:46.656Z,30.30
2023-06-11T21:15:20.256Z,30.20
2023-06-11T21:17:50.884Z,30.10
2023-06-11T21:20:21.576Z,30.10
2023-06-11T21:22:52.035Z,30.10
2023-06-11T21:25:22.639Z,30.10
2023-06-11T21:27:53.026Z,29.90
2023-06-11T21:30:26.238Z,29.90
2023-06-11T21:32:57.114Z,30.00
2023-06-11T21:35:27.714Z,29.90
2023-06-11T21:38:00.346Z,29.90
2023-06-11T21:40:30.932Z,29.80
2023-06-11T21:43:01.717Z,29.70
2023-06-11T21:45:35.441Z,29.70
2023-06-11T21:48:05.995Z,29.60
2023-06-11T21:50:36.895Z,29.50
2023-06-11T21:53:08.662Z,29.40
2023-06-11T21:55:39.134Z,29.40
2023-06-11T21:58:09.626Z,29.40
2023-06-11T22:00:42.761Z,29.30
2023-06-11T22:03:15.687Z,29.20
2023-06-11T22:05:46.346Z,29.20
2023-06-11T22:08:17.432Z,29.10
2023-06-11T22:10:48.688Z,29.00
2023-06-11T22:13:19.232Z,29.00
2023-06-11T22:15:52.415Z,28.90
2023-06-11T22:18:23.009Z,28.90
2023-06-11T22:20:54.142Z,28.80
2023-06-11T22:23:33.738Z,28.80
2023-06-11T22:26:12.721Z,28.70
2023-06-11T22:28:43.235Z,28.70
2023-06-11T22:31:16.521Z,28.60
2023-06-11T22:33:47.655Z,28.60
2023-06-11T22:36:18.290Z,28.60
2023-06-11T22:38:48.760Z,28.50
2023-06-11T22:41:19.228Z,28.50
2023-06-11T22:43:49.722Z,28.40
2023-06-11T22:46:22.845Z,28.40
2023-06-11T22:48:54.382Z,28.40
2023-06-11T22:51:27.258Z,28.30
2023-06-11T22:53:57.826Z,28.30
2023-06-11T22:56:28.418Z,28.20
2023-06-11T22:58:58.866Z,28.10
2023-06-11T23:01:31.925Z,28.10
2023-06-11T23:04:02.466Z,28.00
2023-06-11T23:06:33.439Z,28.00
2023-06-11T23:09:04.249Z,27.90
2023-06-11T23:11:34.979Z,27.90
2023-06-11T23:14:05.611Z,27.80
2023-06-11T23:16:38.968Z,27.70
2023-06-11T23:19:09.456Z,27.70
2023-06-11T23:21:41.361Z,27.70
2023-06-11T23:24:12.977Z,27.60
2023-06-11T23:26:45.419Z,27.50
2023-06-11T23:29:16.553Z,27.50
2023-06-11T23:31:49.810Z,27.40
2023-06-11T23:34:20.401Z,27.40
2023-06-11T23:36:50.966Z,27.30
2023-06-11T23:39:21.573Z,27.30
2023-06-11T23:41:52.074Z,27.30
2023-06-11T23:44:23.533Z,27.30
2023-06-11T23:46:56.683Z,27.30
2023-06-11T23:49:27.188Z,27.20
2023-06-11T23:51:57.724Z,27.30
2023-06-11T23:54:28.141Z,27.20
2023-06-11T23:56:58.769Z,27.10
2023-06-11T23:59:29.300Z,27.00
